sensor_id;sensor_type;location;lat;lon;timestamp;pressure;altitude;pressure_sealevel;temperature;humidity
47220;BME280;32961;51.936;4.788;2023-02-19T00:01:36;101747.50;;;9.16;100.00
47220;BME280;32961;51.936;4.788;2023-02-19T00:04:06;101745.75;;;9.15;100.00
47220;BME280;32961;51.936;4.788;2023-02-19T00:06:35;101744.16;;;9.12;100.00
47220;BME280;32961;51.936;4.788;2023-02-19T00:09:03;101748.56;;;9.13;100.00
47220;BME280;32961;51.936;4.788;2023-02-19T00:11:33;101741.97;;;9.05;100.00
47220;BME280;32961;51.936;4.788;2023-02-19T00:14:02;101758.25;;;9.05;100.00
47220;BME280;32961;51.936;4.788;2023-02-19T00:16:31;101760.63;;;9.09;100.00
47220;BME280;32961;51.936;4.788;2023-02-19T00:19:01;101762.06;;;9.02;100.00
47220;BME280;32961;51.936;4.788;2023-02-19T00:21:29;101759.97;;;9.06;100.00
47220;BME280;32961;51.936;4.788;2023-02-19T00:23:59;101767.72;;;8.99;100.00
47220;BME280;32961;51.936;4.788;2023-02-19T00:26:27;101753.72;;;9.05;100.00
47220;BME280;32961;51.936;4.788;2023-02-19T00:28:57;101767.47;;;9.02;100.00
47220;BME280;32961;51.936;4.788;2023-02-19T00:31:26;101747.53;;;9.03;100.00
47220;BME280;32961;51.936;4.788;2023-02-19T00:33:59;101763.66;;;9.05;100.00
47220;BME280;32961;51.936;4.788;2023-02-19T00:36:27;101767.16;;;8.94;100.00
47220;BME280;32961;51.936;4.788;2023-02-19T00:38:55;101778.25;;;8.91;100.00
47220;BME280;32961;51.936;4.788;2023-02-19T00:41:24;101767.81;;;8.97;100.00
47220;BME280;32961;51.936;4.788;2023-02-19T00:43:53;101771.41;;;8.98;100.00
47220;BME280;32961;51.936;4.788;2023-02-19T00:46:24;101765.53;;;9.04;100.00
47220;BME280;32961;51.936;4.788;2023-02-19T00:48:54;101763.66;;;9.05;100.00
47220;BME280;32961;51.936;4.788;2023-02-19T00:51:24;101767.91;;;9.09;100.00
47220;BME280;32961;51.936;4.788;2023-02-19T00:53:52;101776.25;;;9.06;100.00
47220;BME280;32961;51.936;4.788;2023-02-19T00:56:21;101769.09;;;9.05;100.00
47220;BME280;32961;51.936;4.788;2023-02-19T00:58:49;101788.19;;;9.03;100.00
47220;BME280;32961;51.936;4.788;2023-02-19T01:01:17;101781.03;;;9.02;100.00
47220;BME280;32961;51.936;4.788;2023-02-19T01:03:47;101776.50;;;9.03;100.00
47220;BME280;32961;51.936;4.788;2023-02-19T01:06:17;101782.13;;;8.99;100.00
47220;BME280;32961;51.936;4.788;2023-02-19T01:08:45;101785.06;;;8.96;100.00
47220;BME280;32961;51.936;4.788;2023-02-19T01:11:13;101785.41;;;8.92;100.00
47220;BME280;32961;51.936;4.788;2023-02-19T01:13:41;101787.97;;;8.93;100.00
47220;BME280;32961;51.936;4.788;2023-02-19T01:16:12;101797.63;;;8.97;100.00
47220;BME280;32961;51.936;4.788;2023-02-19T01:18:40;101785.91;;;8.97;100.00
47220;BME280;32961;51.936;4.788;2023-02-19T01:21:13;101790.81;;;8.92;100.00
47220;BME280;32961;51.936;4.788;2023-02-19T01:23:41;101792.97;;;8.99;100.00
47220;BME280;32961;51.936;4.788;2023-02-19T01:26:12;101787.66;;;8.98;100.00
47220;BME280;32961;51.936;4.788;2023-02-19T01:28:40;101803.25;;;9.07;100.00
47220;BME280;32961;51.936;4.788;2023-02-19T01:31:11;101795.34;;;9.04;100.00
47220;BME280;32961;51.936;4.788;2023-02-19T01:33:43;101790.25;;;8.99;100.00
47220;BME280;32961;51.936;4.788;2023-02-19T01:36:14;101795.03;;;8.96;100.00
47220;BME280;32961;51.936;4.788;2023-02-19T01:38:42;101801.22;;;8.98;100.00
47220;BME280;32961;51.936;4.788;2023-02-19T01:41:11;101802.59;;;9.04;100.00
47220;BME280;32961;51.936;4.788;2023-02-19T01:43:58;101796.53;;;9.13;100.00
47220;BME280;32961;51.936;4.788;2023-02-19T01:46:27;101797.94;;;9.06;100.00
47220;BME280;32961;51.936;4.788;2023-02-19T01:48:56;101796.75;;;9.10;100.00
47220;BME280;32961;51.936;4.788;2023-02-19T01:51:29;101795.53;;;9.14;100.00
47220;BME280;32961;51.936;4.788;2023-02-19T01:53:59;101794.56;;;9.15;100.00
47220;BME280;32961;51.936;4.788;2023-02-19T01:56:30;101780.78;;;9.18;100.00
47220;BME280;32961;51.936;4.788;2023-02-19T01:59:00;101793.41;;;9.06;100.00
47220;BME280;32961;51.936;4.788;2023-02-19T02:01:28;101789.81;;;9.06;100.00
47220;BME280;32961;51.936;4.788;2023-02-19T02:03:56;101793.81;;;9.13;100.00
47220;BME280;32961;51.936;4.788;2023-02-19T02:06:29;101788.50;;;9.11;100.00
47220;BME280;32961;51.936;4.788;2023-02-19T02:08:59;101796.19;;;9.05;100.00
47220;BME280;32961;51.936;4.788;2023-02-19T02:11:47;101799.22;;;9.13;100.00
47220;BME280;32961;51.936;4.788;2023-02-19T02:14:16;101805.75;;;9.10;100.00
47220;BME280;32961;51.936;4.788;2023-02-19T02:16:53;101808.47;;;9.10;100.00
47220;BME280;32961;51.936;4.788;2023-02-19T02:19:31;101810.31;;;9.10;100.00
47220;BME280;32961;51.936;4.788;2023-02-19T02:22:09;101810.72;;;9.04;100.00
47220;BME280;32961;51.936;4.788;2023-02-19T02:25:15;101801.41;;;9.08;100.00
47220;BME280;32961;51.936;4.788;2023-02-19T02:27:59;101804.00;;;9.09;100.00
47220;BME280;32961;51.936;4.788;2023-02-19T02:30:38;101809.75;;;9.05;100.00
47220;BME280;32961;51.936;4.788;2023-02-19T02:33:16;101803.03;;;9.10;100.00
47220;BME280;32961;51.936;4.788;2023-02-19T02:35:50;101810.72;;;9.17;100.00
47220;BME280;32961;51.936;4.788;2023-02-19T02:38:22;101813.31;;;9.18;100.00
47220;BME280;32961;51.936;4.788;2023-02-19T02:40:51;101816.03;;;9.18;100.00
47220;BME280;32961;51.936;4.788;2023-02-19T02:43:18;101820.59;;;9.18;100.00
47220;BME280;32961;51.936;4.788;2023-02-19T02:45:48;101820.25;;;9.22;100.00
47220;BME280;32961;51.936;4.788;2023-02-19T02:48:21;101824.59;;;9.25;100.00
47220;BME280;32961;51.936;4.788;2023-02-19T02:50:53;101826.53;;;9.23;100.00
47220;BME280;32961;51.936;4.788;2023-02-19T02:53:26;101828.41;;;9.22;100.00
47220;BME280;32961;51.936;4.788;2023-02-19T02:56:13;101831.19;;;9.21;100.00
47220;BME280;32961;51.936;4.788;2023-02-19T02:58:42;101830.88;;;9.25;100.00
47220;BME280;32961;51.936;4.788;2023-02-19T03:01:16;101846.94;;;9.15;100.00
47220;BME280;32961;51.936;4.788;2023-02-19T03:04:06;101842.28;;;9.18;100.00
47220;BME280;32961;51.936;4.788;2023-02-19T03:06:36;101848.56;;;9.18;100.00
47220;BME280;32961;51.936;4.788;2023-02-19T03:09:10;101845.84;;;9.18;100.00
47220;BME280;32961;51.936;4.788;2023-02-19T03:11:39;101848.34;;;9.21;100.00
47220;BME280;32961;51.936;4.788;2023-02-19T03:14:30;101842.94;;;9.21;100.00
47220;BME280;32961;51.936;4.788;2023-02-19T03:17:23;101846.09;;;9.15;100.00
47220;BME280;32961;51.936;4.788;2023-02-19T03:20:13;101854.09;;;9.17;100.00
47220;BME280;32961;51.936;4.788;2023-02-19T03:22:43;101853.13;;;9.18;100.00
47220;BME280;32961;51.936;4.788;2023-02-19T03:25:14;101851.84;;;9.10;100.00
47220;BME280;32961;51.936;4.788;2023-02-19T03:28:05;101862.16;;;9.05;100.00
47220;BME280;32961;51.936;4.788;2023-02-19T03:30:37;101846.63;;;9.07;100.00
47220;BME280;32961;51.936;4.788;2023-02-19T03:33:10;101865.63;;;8.94;100.00
47220;BME280;32961;51.936;4.788;2023-02-19T03:35:43;101856.19;;;9.00;100.00
47220;BME280;32961;51.936;4.788;2023-02-19T03:38:15;101850.78;;;9.00;100.00
47220;BME280;32961;51.936;4.788;2023-02-19T03:40:51;101864.66;;;8.95;100.00
47220;BME280;32961;51.936;4.788;2023-02-19T03:43:25;101866.28;;;8.98;100.00
47220;BME280;32961;51.936;4.788;2023-02-19T03:45:57;101874.59;;;8.95;100.00
47220;BME280;32961;51.936;4.788;2023-02-19T03:48:33;101862.78;;;8.96;100.00
47220;BME280;32961;51.936;4.788;2023-02-19T03:51:17;101868.34;;;8.94;100.00
47220;BME280;32961;51.936;4.788;2023-02-19T03:53:52;101882.00;;;8.93;100.00
47220;BME280;32961;51.936;4.788;2023-02-19T03:56:27;101881.66;;;8.97;100.00
47220;BME280;32961;51.936;4.788;2023-02-19T03:58:58;101880.91;;;8.95;100.00
47220;BME280;32961;51.936;4.788;2023-02-19T04:01:31;101894.34;;;8.97;100.00
47220;BME280;32961;51.936;4.788;2023-02-19T04:04:03;101892.06;;;8.91;100.00
47220;BME280;32961;51.936;4.788;2023-02-19T04:06:36;101898.03;;;8.96;100.00
47220;BME280;32961;51.936;4.788;2023-02-19T04:09:07;101901.72;;;8.95;100.00
47220;BME280;32961;51.936;4.788;2023-02-19T04:11:36;101905.19;;;8.97;100.00
47220;BME280;32961;51.936;4.788;2023-02-19T04:14:08;101897.06;;;8.97;100.00
47220;BME280;32961;51.936;4.788;2023-02-19T04:16:40;101892.19;;;8.89;100.00
47220;BME280;32961;51.936;4.788;2023-02-19T04:19:15;101900.09;;;8.79;100.00
47220;BME280;32961;51.936;4.788;2023-02-19T04:21:46;101901.06;;;8.78;100.00
47220;BME280;32961;51.936;4.788;2023-02-19T04:24:21;101896.84;;;8.87;100.00
47220;BME280;32961;51.936;4.788;2023-02-19T04:26:49;101901.84;;;8.80;100.00
47220;BME280;32961;51.936;4.788;2023-02-19T04:29:18;101913.41;;;8.82;100.00
47220;BME280;32961;51.936;4.788;2023-02-19T04:31:45;101907.16;;;8.82;100.00
47220;BME280;32961;51.936;4.788;2023-02-19T04:34:15;101919.81;;;8.81;100.00
47220;BME280;32961;51.936;4.788;2023-02-19T04:36:42;101931.97;;;8.89;100.00
47220;BME280;32961;51.936;4.788;2023-02-19T04:39:11;101935.44;;;8.91;100.00
47220;BME280;32961;51.936;4.788;2023-02-19T04:41:39;101941.72;;;8.78;100.00
47220;BME280;32961;51.936;4.788;2023-02-19T04:44:06;101945.09;;;8.82;100.00
47220;BME280;32961;51.936;4.788;2023-02-19T04:46:34;101952.56;;;8.78;100.00
47220;BME280;32961;51.936;4.788;2023-02-19T04:49:02;101950.63;;;8.80;100.00
47220;BME280;32961;51.936;4.788;2023-02-19T04:51:31;101954.50;;;8.76;100.00
47220;BME280;32961;51.936;4.788;2023-02-19T04:53:59;101959.47;;;8.70;100.00
47220;BME280;32961;51.936;4.788;2023-02-19T04:56:27;101960.03;;;8.75;100.00
47220;BME280;32961;51.936;4.788;2023-02-19T04:58:54;101964.97;;;8.68;100.00
47220;BME280;32961;51.936;4.788;2023-02-19T05:01:22;101969.66;;;8.66;100.00
47220;BME280;32961;51.936;4.788;2023-02-19T05:03:50;101971.84;;;8.74;100.00
47220;BME280;32961;51.936;4.788;2023-02-19T05:06:18;101971.16;;;8.70;100.00
47220;BME280;32961;51.936;4.788;2023-02-19T05:08:47;101979.84;;;8.62;100.00
47220;BME280;32961;51.936;4.788;2023-02-19T05:11:15;101980.25;;;8.56;100.00
47220;BME280;32961;51.936;4.788;2023-02-19T05:13:43;101991.19;;;8.55;100.00
47220;BME280;32961;51.936;4.788;2023-02-19T05:16:13;101986.53;;;8.57;100.00
47220;BME280;32961;51.936;4.788;2023-02-19T05:18:42;101988.00;;;8.48;100.00
47220;BME280;32961;51.936;4.788;2023-02-19T05:21:10;101999.31;;;8.55;100.00
47220;BME280;32961;51.936;4.788;2023-02-19T05:23:39;102000.06;;;8.57;100.00
47220;BME280;32961;51.936;4.788;2023-02-19T05:26:11;102001.81;;;8.58;100.00
47220;BME280;32961;51.936;4.788;2023-02-19T05:28:40;102011.78;;;8.57;100.00
47220;BME280;32961;51.936;4.788;2023-02-19T05:31:09;102007.38;;;8.69;100.00
47220;BME280;32961;51.936;4.788;2023-02-19T05:33:38;102013.19;;;8.63;100.00
47220;BME280;32961;51.936;4.788;2023-02-19T05:36:10;102007.28;;;8.71;100.00
47220;BME280;32961;51.936;4.788;2023-02-19T05:38:39;102010.25;;;8.80;100.00
47220;BME280;32961;51.936;4.788;2023-02-19T05:41:13;102010.44;;;8.77;100.00
47220;BME280;32961;51.936;4.788;2023-02-19T05:43:44;102009.34;;;8.67;100.00
47220;BME280;32961;51.936;4.788;2023-02-19T05:46:13;102007.53;;;8.53;100.00
47220;BME280;32961;51.936;4.788;2023-02-19T05:48:42;102004.53;;;8.58;100.00
47220;BME280;32961;51.936;4.788;2023-02-19T05:51:15;102005.13;;;8.48;100.00
47220;BME280;32961;51.936;4.788;2023-02-19T05:53:44;102008.53;;;8.38;100.00
47220;BME280;32961;51.936;4.788;2023-02-19T05:56:23;102017.34;;;8.41;100.00
47220;BME280;32961;51.936;4.788;2023-02-19T05:58:54;102014.69;;;8.40;100.00
47220;BME280;32961;51.936;4.788;2023-02-19T06:01:24;102012.56;;;8.45;100.00
47220;BME280;32961;51.936;4.788;2023-02-19T06:03:53;102017.41;;;8.40;100.00
47220;BME280;32961;51.936;4.788;2023-02-19T06:06:23;102020.13;;;8.40;100.00
47220;BME280;32961;51.936;4.788;2023-02-19T06:08:52;102020.94;;;8.27;100.00
47220;BME280;32961;51.936;4.788;2023-02-19T06:11:22;102034.28;;;8.30;100.00
47220;BME280;32961;51.936;4.788;2023-02-19T06:13:50;102037.66;;;8.34;100.00
47220;BME280;32961;51.936;4.788;2023-02-19T06:16:18;102039.47;;;8.33;100.00
47220;BME280;32961;51.936;4.788;2023-02-19T06:18:48;102040.38;;;8.34;100.00
47220;BME280;32961;51.936;4.788;2023-02-19T06:21:16;102040.81;;;8.41;100.00
47220;BME280;32961;51.936;4.788;2023-02-19T06:23:45;102053.50;;;8.40;100.00
47220;BME280;32961;51.936;4.788;2023-02-19T06:26:16;102057.19;;;8.39;100.00
47220;BME280;32961;51.936;4.788;2023-02-19T06:28:46;102058.34;;;8.35;100.00
47220;BME280;32961;51.936;4.788;2023-02-19T06:31:15;102063.38;;;8.41;100.00
47220;BME280;32961;51.936;4.788;2023-02-19T06:33:43;102074.69;;;8.33;100.00
47220;BME280;32961;51.936;4.788;2023-02-19T06:36:13;102063.78;;;8.35;100.00
47220;BME280;32961;51.936;4.788;2023-02-19T06:38:41;102063.97;;;8.32;100.00
47220;BME280;32961;51.936;4.788;2023-02-19T06:41:10;102065.03;;;8.29;100.00
47220;BME280;32961;51.936;4.788;2023-02-19T06:43:39;102071.69;;;8.24;100.00
47220;BME280;32961;51.936;4.788;2023-02-19T06:46:10;102070.56;;;8.28;100.00
47220;BME280;32961;51.936;4.788;2023-02-19T06:48:39;102076.53;;;8.33;100.00
47220;BME280;32961;51.936;4.788;2023-02-19T06:51:10;102066.28;;;8.24;100.00
47220;BME280;32961;51.936;4.788;2023-02-19T06:53:38;102072.47;;;8.26;100.00
47220;BME280;32961;51.936;4.788;2023-02-19T06:56:20;102072.09;;;8.17;100.00
47220;BME280;32961;51.936;4.788;2023-02-19T06:58:48;102073.44;;;8.25;100.00
47220;BME280;32961;51.936;4.788;2023-02-19T07:01:18;102082.75;;;8.21;100.00
47220;BME280;32961;51.936;4.788;2023-02-19T07:03:45;102083.09;;;8.29;100.00
47220;BME280;32961;51.936;4.788;2023-02-19T07:06:13;102084.50;;;8.22;100.00
47220;BME280;32961;51.936;4.788;2023-02-19T07:08:41;102095.09;;;8.25;100.00
47220;BME280;32961;51.936;4.788;2023-02-19T07:11:09;102109.22;;;8.30;100.00
47220;BME280;32961;51.936;4.788;2023-02-19T07:13:37;102107.28;;;8.32;100.00
47220;BME280;32961;51.936;4.788;2023-02-19T07:16:06;102123.34;;;8.35;100.00
47220;BME280;32961;51.936;4.788;2023-02-19T07:18:36;102126.91;;;8.35;100.00
47220;BME280;32961;51.936;4.788;2023-02-19T07:21:06;102129.75;;;8.34;100.00
47220;BME280;32961;51.936;4.788;2023-02-19T07:23:34;102127.03;;;8.34;100.00
47220;BME280;32961;51.936;4.788;2023-02-19T07:26:02;102136.13;;;8.33;100.00
47220;BME280;32961;51.936;4.788;2023-02-19T07:28:30;102139.31;;;8.25;100.00
47220;BME280;32961;51.936;4.788;2023-02-19T07:31:00;102152.53;;;8.30;100.00
47220;BME280;32961;51.936;4.788;2023-02-19T07:33:28;102153.31;;;8.17;100.00
47220;BME280;32961;51.936;4.788;2023-02-19T07:35:58;102154.22;;;8.18;100.00
47220;BME280;32961;51.936;4.788;2023-02-19T07:38:25;102162.53;;;8.29;100.00
47220;BME280;32961;51.936;4.788;2023-02-19T07:40:55;102167.72;;;8.32;100.00
47220;BME280;32961;51.936;4.788;2023-02-19T07:43:23;102178.09;;;8.26;100.00
47220;BME280;32961;51.936;4.788;2023-02-19T07:45:52;102182.25;;;8.31;100.00
47220;BME280;32961;51.936;4.788;2023-02-19T07:48:20;102186.88;;;8.29;100.00
47220;BME280;32961;51.936;4.788;2023-02-19T07:50:51;102190.28;;;8.33;100.00
47220;BME280;32961;51.936;4.788;2023-02-19T07:53:22;102195.69;;;8.33;100.00
47220;BME280;32961;51.936;4.788;2023-02-19T07:55:50;102206.72;;;8.30;100.00
47220;BME280;32961;51.936;4.788;2023-02-19T07:58:18;102203.81;;;8.33;100.00
47220;BME280;32961;51.936;4.788;2023-02-19T08:00:46;102205.06;;;8.27;100.00
47220;BME280;32961;51.936;4.788;2023-02-19T08:03:14;102206.81;;;8.28;100.00
47220;BME280;32961;51.936;4.788;2023-02-19T08:05:42;102209.44;;;8.15;100.00
47220;BME280;32961;51.936;4.788;2023-02-19T08:08:11;102221.13;;;8.16;100.00
47220;BME280;32961;51.936;4.788;2023-02-19T08:10:41;102214.63;;;8.18;100.00
47220;BME280;32961;51.936;4.788;2023-02-19T08:13:27;102219.09;;;8.19;100.00
47220;BME280;32961;51.936;4.788;2023-02-19T08:16:08;102230.78;;;8.20;100.00
47220;BME280;32961;51.936;4.788;2023-02-19T08:18:47;102231.16;;;8.14;100.00
47220;BME280;32961;51.936;4.788;2023-02-19T08:21:15;102232.81;;;8.16;100.00
47220;BME280;32961;51.936;4.788;2023-02-19T08:23:45;102231.38;;;8.11;100.00
47220;BME280;32961;51.936;4.788;2023-02-19T08:26:17;102233.19;;;8.10;100.00
47220;BME280;32961;51.936;4.788;2023-02-19T08:28:47;102226.13;;;8.08;100.00
47220;BME280;32961;51.936;4.788;2023-02-19T08:31:15;102234.06;;;8.11;100.00
47220;BME280;32961;51.936;4.788;2023-02-19T08:33:43;102229.78;;;8.07;100.00
47220;BME280;32961;51.936;4.788;2023-02-19T08:36:10;102237.06;;;8.06;100.00
47220;BME280;32961;51.936;4.788;2023-02-19T08:38:38;102243.25;;;8.08;100.00
47220;BME280;32961;51.936;4.788;2023-02-19T08:41:07;102247.69;;;8.09;100.00
47220;BME280;32961;51.936;4.788;2023-02-19T08:43:37;102253.31;;;8.06;100.00
47220;BME280;32961;51.936;4.788;2023-02-19T08:46:06;102262.75;;;7.99;100.00
47220;BME280;32961;51.936;4.788;2023-02-19T08:48:36;102265.97;;;8.06;100.00
47220;BME280;32961;51.936;4.788;2023-02-19T08:51:06;102256.88;;;8.07;100.00
47220;BME280;32961;51.936;4.788;2023-02-19T08:53:37;102255.34;;;8.17;100.00
47220;BME280;32961;51.936;4.788;2023-02-19T08:56:05;102254.47;;;8.16;100.00
47220;BME280;32961;51.936;4.788;2023-02-19T08:58:33;102248.97;;;8.18;100.00
47220;BME280;32961;51.936;4.788;2023-02-19T09:01:07;102250.78;;;8.17;100.00
47220;BME280;32961;51.936;4.788;2023-02-19T09:03:35;102252.75;;;8.15;100.00
47220;BME280;32961;51.936;4.788;2023-02-19T09:06:03;102241.16;;;8.28;100.00
47220;BME280;32961;51.936;4.788;2023-02-19T09:08:31;102253.25;;;8.37;100.00
47220;BME280;32961;51.936;4.788;2023-02-19T09:11:00;102253.34;;;8.35;100.00
47220;BME280;32961;51.936;4.788;2023-02-19T09:13:29;102259.03;;;8.30;100.00
47220;BME280;32961;51.936;4.788;2023-02-19T09:15:57;102264.09;;;8.37;100.00
47220;BME280;32961;51.936;4.788;2023-02-19T09:18:26;102269.88;;;8.30;100.00
47220;BME280;32961;51.936;4.788;2023-02-19T09:20:54;102273.28;;;8.34;100.00
47220;BME280;32961;51.936;4.788;2023-02-19T09:23:23;102278.38;;;8.39;100.00
47220;BME280;32961;51.936;4.788;2023-02-19T09:25:56;102277.63;;;8.37;100.00
47220;BME280;32961;51.936;4.788;2023-02-19T09:28:24;102271.31;;;8.36;100.00
47220;BME280;32961;51.936;4.788;2023-02-19T09:30:52;102275.38;;;8.29;100.00
47220;BME280;32961;51.936;4.788;2023-02-19T09:33:20;102297.13;;;8.27;100.00
47220;BME280;32961;51.936;4.788;2023-02-19T09:35:49;102306.63;;;8.34;100.00
47220;BME280;32961;51.936;4.788;2023-02-19T09:38:17;102301.91;;;8.38;100.00
47220;BME280;32961;51.936;4.788;2023-02-19T09:40:45;102307.16;;;8.41;100.00
47220;BME280;32961;51.936;4.788;2023-02-19T09:43:17;102316.97;;;8.42;100.00
47220;BME280;32961;51.936;4.788;2023-02-19T09:45:46;102323.19;;;8.44;100.00
47220;BME280;32961;51.936;4.788;2023-02-19T09:48:15;102304.94;;;8.48;100.00
47220;BME280;32961;51.936;4.788;2023-02-19T09:50:46;102315.69;;;8.49;100.00
47220;BME280;32961;51.936;4.788;2023-02-19T09:53:19;102325.97;;;8.59;100.00
47220;BME280;32961;51.936;4.788;2023-02-19T09:55:49;102331.09;;;8.63;100.00
47220;BME280;32961;51.936;4.788;2023-02-19T09:58:22;102333.59;;;8.66;100.00
47220;BME280;32961;51.936;4.788;2023-02-19T10:00:53;102335.06;;;8.72;100.00
47220;BME280;32961;51.936;4.788;2023-02-19T10:03:24;102342.44;;;8.85;100.00
47220;BME280;32961;51.936;4.788;2023-02-19T10:05:58;102355.56;;;8.76;100.00
47220;BME280;32961;51.936;4.788;2023-02-19T10:08:32;102352.97;;;8.75;100.00
47220;BME280;32961;51.936;4.788;2023-02-19T10:11:02;102355.00;;;8.71;100.00
47220;BME280;32961;51.936;4.788;2023-02-19T10:13:33;102358.38;;;8.75;100.00
47220;BME280;32961;51.936;4.788;2023-02-19T10:16:04;102365.84;;;8.71;100.00
47220;BME280;32961;51.936;4.788;2023-02-19T10:18:38;102378.81;;;8.66;100.00
47220;BME280;32961;51.936;4.788;2023-02-19T10:21:09;102368.28;;;8.76;100.00
47220;BME280;32961;51.936;4.788;2023-02-19T10:23:40;102365.16;;;8.67;100.00
47220;BME280;32961;51.936;4.788;2023-02-19T10:26:09;102382.59;;;8.63;100.00
47220;BME280;32961;51.936;4.788;2023-02-19T10:28:37;102392.53;;;8.63;100.00
47220;BME280;32961;51.936;4.788;2023-02-19T10:31:13;102397.63;;;8.53;99.89
47220;BME280;32961;51.936;4.788;2023-02-19T10:33:48;102404.22;;;8.49;98.55
47220;BME280;32961;51.936;4.788;2023-02-19T10:36:24;102408.22;;;8.42;97.84
47220;BME280;32961;51.936;4.788;2023-02-19T10:38:59;102411.19;;;8.53;97.35
47220;BME280;32961;51.936;4.788;2023-02-19T10:41:30;102418.56;;;8.51;98.53
47220;BME280;32961;51.936;4.788;2023-02-19T10:44:14;102414.84;;;8.52;99.34
47220;BME280;32961;51.936;4.788;2023-02-19T10:46:43;102418.19;;;8.57;99.11
47220;BME280;32961;51.936;4.788;2023-02-19T10:49:20;102422.91;;;8.38;98.81
47220;BME280;32961;51.936;4.788;2023-02-19T10:51:51;102416.50;;;8.39;98.59
47220;BME280;32961;51.936;4.788;2023-02-19T10:54:24;102414.16;;;8.48;99.43
47220;BME280;32961;51.936;4.788;2023-02-19T10:56:53;102424.72;;;8.53;98.78
47220;BME280;32961;51.936;4.788;2023-02-19T10:59:23;102424.25;;;8.46;97.63
47220;BME280;32961;51.936;4.788;2023-02-19T11:01:52;102412.25;;;8.50;97.90
47220;BME280;32961;51.936;4.788;2023-02-19T11:04:21;102419.41;;;8.51;97.83
47220;BME280;32961;51.936;4.788;2023-02-19T11:06:49;102422.00;;;8.53;97.94
47220;BME280;32961;51.936;4.788;2023-02-19T11:09:25;102422.28;;;8.48;97.77
47220;BME280;32961;51.936;4.788;2023-02-19T11:11:54;102412.56;;;8.44;97.75
47220;BME280;32961;51.936;4.788;2023-02-19T11:14:23;102416.19;;;8.45;97.85
47220;BME280;32961;51.936;4.788;2023-02-19T11:16:54;102419.69;;;8.47;98.81
47220;BME280;32961;51.936;4.788;2023-02-19T11:19:27;102414.78;;;8.54;98.88
47220;BME280;32961;51.936;4.788;2023-02-19T11:21:57;102421.16;;;8.53;97.70
47220;BME280;32961;51.936;4.788;2023-02-19T11:24:30;102412.06;;;8.54;98.57
47220;BME280;32961;51.936;4.788;2023-02-19T11:27:03;102407.53;;;8.38;97.97
47220;BME280;32961;51.936;4.788;2023-02-19T11:29:33;102409.88;;;8.44;98.50
47220;BME280;32961;51.936;4.788;2023-02-19T11:32:24;102412.56;;;8.44;98.01
47220;BME280;32961;51.936;4.788;2023-02-19T11:35:12;102409.44;;;8.52;98.46
47220;BME280;32961;51.936;4.788;2023-02-19T11:37:52;102400.84;;;8.29;98.47
47220;BME280;32961;51.936;4.788;2023-02-19T11:40:36;102398.94;;;8.46;98.94
47220;BME280;32961;51.936;4.788;2023-02-19T11:43:15;102408.31;;;8.56;98.32
47220;BME280;32961;51.936;4.788;2023-02-19T11:45:50;102411.50;;;8.63;97.12
47220;BME280;32961;51.936;4.788;2023-02-19T11:48:31;102412.75;;;8.72;96.94
47220;BME280;32961;51.936;4.788;2023-02-19T11:51:29;102401.78;;;8.89;97.73
47220;BME280;32961;51.936;4.788;2023-02-19T11:54:11;102402.84;;;9.01;96.10
47220;BME280;32961;51.936;4.788;2023-02-19T11:56:47;102391.91;;;9.03;93.79
47220;BME280;32961;51.936;4.788;2023-02-19T11:59:19;102381.16;;;8.87;93.12
47220;BME280;32961;51.936;4.788;2023-02-19T12:02:00;102387.63;;;8.84;94.98
47220;BME280;32961;51.936;4.788;2023-02-19T12:08:07;102403.41;;;8.92;94.44
47220;BME280;32961;51.936;4.788;2023-02-19T12:10:48;102406.72;;;8.97;95.23
47220;BME280;32961;51.936;4.788;2023-02-19T12:13:30;102418.34;;;8.99;94.60
47220;BME280;32961;51.936;4.788;2023-02-19T12:16:16;102410.97;;;9.01;95.67
47220;BME280;32961;51.936;4.788;2023-02-19T12:19:02;102418.31;;;8.85;96.00
47220;BME280;32961;51.936;4.788;2023-02-19T12:21:50;102411.44;;;8.79;97.04
47220;BME280;32961;51.936;4.788;2023-02-19T12:27:31;102412.69;;;8.88;97.11
47220;BME280;32961;51.936;4.788;2023-02-19T12:30:17;102407.97;;;8.77;96.38
47220;BME280;32961;51.936;4.788;2023-02-19T12:35:55;102416.38;;;8.72;97.35
47220;BME280;32961;51.936;4.788;2023-02-19T12:38:29;102430.50;;;8.77;97.75
47220;BME280;32961;51.936;4.788;2023-02-19T12:41:10;102426.41;;;8.70;98.01
47220;BME280;32961;51.936;4.788;2023-02-19T12:43:45;102426.72;;;8.80;98.50
47220;BME280;32961;51.936;4.788;2023-02-19T12:46:23;102427.00;;;8.75;98.46
47220;BME280;32961;51.936;4.788;2023-02-19T12:48:57;102434.28;;;8.75;99.11
47220;BME280;32961;51.936;4.788;2023-02-19T12:51:33;102442.09;;;8.65;100.00
47220;BME280;32961;51.936;4.788;2023-02-19T12:54:05;102439.19;;;8.68;100.00
47220;BME280;32961;51.936;4.788;2023-02-19T12:56:41;102440.94;;;8.69;100.00
47220;BME280;32961;51.936;4.788;2023-02-19T12:59:10;102442.00;;;8.66;100.00
47220;BME280;32961;51.936;4.788;2023-02-19T13:01:49;102446.97;;;8.74;100.00
47220;BME280;32961;51.936;4.788;2023-02-19T13:04:27;102454.72;;;8.80;100.00
47220;BME280;32961;51.936;4.788;2023-02-19T13:07:01;102472.53;;;8.85;100.00
47220;BME280;32961;51.936;4.788;2023-02-19T13:09:36;102473.59;;;8.82;100.00
47220;BME280;32961;51.936;4.788;2023-02-19T13:12:08;102474.44;;;8.82;100.00
47220;BME280;32961;51.936;4.788;2023-02-19T13:14:41;102473.69;;;8.80;100.00
47220;BME280;32961;51.936;4.788;2023-02-19T13:17:19;102468.34;;;8.79;100.00
47220;BME280;32961;51.936;4.788;2023-02-19T13:19:51;102474.34;;;8.70;99.34
47220;BME280;32961;51.936;4.788;2023-02-19T13:22:28;102474.59;;;8.65;97.63
47220;BME280;32961;51.936;4.788;2023-02-19T13:25:17;102483.59;;;8.65;98.12
47220;BME280;32961;51.936;4.788;2023-02-19T13:27:57;102489.84;;;8.51;97.55